sensor_id;sensor_type;location;lat;lon;timestamp;pressure;altitude;pressure_sealevel;temperature;humidity
7662;BME280;30314;48.184;11.510;2022-07-05T04:39:33;96223.66;;;15.79;100.00
7662;BME280;30314;48.184;11.510;2022-07-05T04:42:07;96164.56;;;15.42;100.00
7662;BME280;30314;48.184;11.510;2022-07-05T04:44:41;96223.16;;;15.86;100.00
7662;BME280;30314;48.184;11.510;2022-07-05T04:47:09;96224.91;;;15.90;100.00
7662;BME280;30314;48.184;11.510;2022-07-05T04:49:37;96233.88;;;15.95;100.00
7662;BME280;30314;48.184;11.510;2022-07-05T04:52:05;96221.31;;;15.95;100.00
7662;BME280;30314;48.184;11.510;2022-07-05T04:54:35;96230.56;;;15.98;100.00
7662;BME280;30314;48.184;11.510;2022-07-05T04:57:04;96227.91;;;15.98;100.00
7662;BME280;30314;48.184;11.510;2022-07-05T04:59:32;96230.41;;;15.94;100.00
7662;BME280;30314;48.184;11.510;2022-07-05T05:01:59;96204.69;;;15.89;100.00
7662;BME280;30314;48.184;11.510;2022-07-05T05:04:27;96234.78;;;16.16;100.00
7662;BME280;30314;48.184;11.510;2022-07-05T05:06:55;96206.56;;;16.06;100.00
7662;BME280;30314;48.184;11.510;2022-07-05T05:09:23;96216.44;;;16.15;100.00
7662;BME280;30314;48.184;11.510;2022-07-05T05:11:52;96226.75;;;16.25;100.00
7662;BME280;30314;48.184;11.510;2022-07-05T05:14:20;96208.88;;;16.17;100.00
7662;BME280;30314;48.184;11.510;2022-07-05T05:16:47;96210.91;;;16.20;100.00
7662;BME280;30314;48.184;11.510;2022-07-05T05:19:15;96218.91;;;16.20;100.00
7662;BME280;30314;48.184;11.510;2022-07-05T05:21:43;96204.69;;;16.07;100.00
7662;BME280;30314;48.184;11.510;2022-07-05T05:24:11;96223.78;;;16.27;100.00
7662;BME280;30314;48.184;11.510;2022-07-05T05:26:39;96211.09;;;16.15;100.00
7662;BME280;30314;48.184;11.510;2022-07-05T05:29:08;96196.50;;;16.12;100.00
7662;BME280;30314;48.184;11.510;2022-07-05T05:31:36;96217.03;;;16.29;100.00
7662;BME280;30314;48.184;11.510;2022-07-05T05:34:03;96202.75;;;16.16;100.00
7662;BME280;30314;48.184;11.510;2022-07-05T05:36:32;96212.47;;;16.30;100.00
7662;BME280;30314;48.184;11.510;2022-07-05T05:39:00;96217.91;;;16.42;100.00
7662;BME280;30314;48.184;11.510;2022-07-05T05:41:28;96214.78;;;16.40;100.00
7662;BME280;30314;48.184;11.510;2022-07-05T05:43:56;96230.72;;;16.67;100.00
7662;BME280;30314;48.184;11.510;2022-07-05T05:46:25;96213.94;;;16.57;100.00
7662;BME280;30314;48.184;11.510;2022-07-05T05:48:53;96194.69;;;16.43;100.00
7662;BME280;30314;48.184;11.510;2022-07-05T05:51:21;96215.97;;;16.60;100.00
7662;BME280;30314;48.184;11.510;2022-07-05T05:53:49;96204.03;;;16.58;100.00
7662;BME280;30314;48.184;11.510;2022-07-05T05:56:17;96190.44;;;16.51;100.00
7662;BME280;30314;48.184;11.510;2022-07-05T05:58:45;96209.22;;;16.63;100.00
7662;BME280;30314;48.184;11.510;2022-07-05T06:01:12;96223.78;;;16.74;100.00
7662;BME280;30314;48.184;11.510;2022-07-05T06:03:42;96244.75;;;16.94;100.00
7662;BME280;30314;48.184;11.510;2022-07-05T06:06:10;96212.00;;;16.75;100.00
7662;BME280;30314;48.184;11.510;2022-07-05T06:08:37;96190.34;;;16.68;100.00
7662;BME280;30314;48.184;11.510;2022-07-05T06:11:05;96194.13;;;16.67;100.00
7662;BME280;30314;48.184;11.510;2022-07-05T06:13:33;96239.06;;;16.95;100.00
7662;BME280;30314;48.184;11.510;2022-07-05T06:16:01;96252.22;;;17.09;100.00
7662;BME280;30314;48.184;11.510;2022-07-05T06:18:29;96264.56;;;17.23;100.00
7662;BME280;30314;48.184;11.510;2022-07-05T06:20:58;96218.03;;;16.94;100.00
7662;BME280;30314;48.184;11.510;2022-07-05T06:23:26;96248.09;;;17.12;100.00
7662;BME280;30314;48.184;11.510;2022-07-05T06:26:24;96260.28;;;17.30;100.00
7662;BME280;30314;48.184;11.510;2022-07-05T06:28:52;96241.28;;;17.23;100.00
7662;BME280;30314;48.184;11.510;2022-07-05T06:31:19;96249.44;;;17.27;100.00
7662;BME280;30314;48.184;11.510;2022-07-05T06:33:47;96240.88;;;17.12;100.00
7662;BME280;30314;48.184;11.510;2022-07-05T06:36:20;96233.25;;;17.02;100.00
7662;BME280;30314;48.184;11.510;2022-07-05T06:38:47;96251.53;;;17.21;100.00
7662;BME280;30314;48.184;11.510;2022-07-05T06:41:15;96248.47;;;17.31;100.00
7662;BME280;30314;48.184;11.510;2022-07-05T06:43:43;96277.16;;;17.43;100.00
7662;BME280;30314;48.184;11.510;2022-07-05T06:46:20;96253.16;;;17.35;100.00
7662;BME280;30314;48.184;11.510;2022-07-05T06:48:48;96255.00;;;17.43;100.00
7662;BME280;30314;48.184;11.510;2022-07-05T06:51:21;96278.22;;;17.51;100.00
7662;BME280;30314;48.184;11.510;2022-07-05T06:53:49;96267.66;;;17.55;100.00
7662;BME280;30314;48.184;11.510;2022-07-05T06:56:36;96233.28;;;17.23;100.00
7662;BME280;30314;48.184;11.510;2022-07-05T06:59:24;96276.03;;;17.53;100.00
7662;BME280;30314;48.184;11.510;2022-07-05T07:02:12;96222.28;;;17.25;100.00
7662;BME280;30314;48.184;11.510;2022-07-05T07:04:49;96275.16;;;17.61;100.00
7662;BME280;30314;48.184;11.510;2022-07-05T07:07:38;96253.50;;;17.33;100.00
7662;BME280;30314;48.184;11.510;2022-07-05T07:10:23;96274.25;;;17.57;100.00
7662;BME280;30314;48.184;11.510;2022-07-05T07:12:55;96275.75;;;17.46;100.00
7662;BME280;30314;48.184;11.510;2022-07-05T07:15:23;96280.44;;;17.49;100.00
7662;BME280;30314;48.184;11.510;2022-07-05T07:17:51;96288.00;;;17.47;100.00
7662;BME280;30314;48.184;11.510;2022-07-05T07:20:19;96264.38;;;17.28;100.00
7662;BME280;30314;48.184;11.510;2022-07-05T07:22:48;96279.59;;;17.36;100.00
7662;BME280;30314;48.184;11.510;2022-07-05T07:25:22;96267.63;;;17.33;100.00
7662;BME280;30314;48.184;11.510;2022-07-05T07:27:52;96295.50;;;17.54;100.00
7662;BME280;30314;48.184;11.510;2022-07-05T07:30:22;96303.66;;;17.57;100.00
7662;BME280;30314;48.184;11.510;2022-07-05T07:32:50;96294.75;;;17.44;100.00
7662;BME280;30314;48.184;11.510;2022-07-05T07:35:19;96286.94;;;17.39;100.00
7662;BME280;30314;48.184;11.510;2022-07-05T07:37:49;96277.22;;;17.35;100.00
7662;BME280;30314;48.184;11.510;2022-07-05T07:40:16;96270.66;;;17.32;100.00
7662;BME280;30314;48.184;11.510;2022-07-05T07:42:44;96285.91;;;17.53;100.00
7662;BME280;30314;48.184;11.510;2022-07-05T07:45:12;96282.28;;;17.57;100.00
7662;BME280;30314;48.184;11.510;2022-07-05T07:47:40;96280.88;;;17.51;100.00
7662;BME280;30314;48.184;11.510;2022-07-05T07:50:09;96293.50;;;17.72;100.00
7662;BME280;30314;48.184;11.510;2022-07-05T07:52:37;96298.84;;;17.72;100.00
7662;BME280;30314;48.184;11.510;2022-07-05T07:55:07;96273.16;;;17.80;100.00
7662;BME280;30314;48.184;11.510;2022-07-05T07:57:35;96316.69;;;18.10;100.00
7662;BME280;30314;48.184;11.510;2022-07-05T08:00:03;96318.25;;;18.11;100.00
7662;BME280;30314;48.184;11.510;2022-07-05T08:02:37;96242.34;;;17.95;100.00
7662;BME280;30314;48.184;11.510;2022-07-05T08:05:06;96310.53;;;18.43;100.00
7662;BME280;30314;48.184;11.510;2022-07-05T08:07:35;96297.06;;;18.40;100.00
7662;BME280;30314;48.184;11.510;2022-07-05T08:10:05;96290.94;;;18.52;100.00
7662;BME280;30314;48.184;11.510;2022-07-05T08:12:34;96263.59;;;18.46;100.00
7662;BME280;30314;48.184;11.510;2022-07-05T08:15:01;96302.47;;;18.77;100.00
7662;BME280;30314;48.184;11.510;2022-07-05T08:17:29;96309.31;;;18.87;100.00
7662;BME280;30314;48.184;11.510;2022-07-05T08:19:57;96290.22;;;18.88;100.00
7662;BME280;30314;48.184;11.510;2022-07-05T08:22:42;96307.47;;;19.25;100.00
7662;BME280;30314;48.184;11.510;2022-07-05T08:25:11;96306.00;;;19.40;100.00
7662;BME280;30314;48.184;11.510;2022-07-05T08:27:40;96317.38;;;19.49;100.00
7662;BME280;30314;48.184;11.510;2022-07-05T08:30:10;96306.47;;;19.29;100.00
7662;BME280;30314;48.184;11.510;2022-07-05T08:32:38;96292.81;;;19.10;100.00
7662;BME280;30314;48.184;11.510;2022-07-05T08:35:06;96286.34;;;18.86;100.00
7662;BME280;30314;48.184;11.510;2022-07-05T08:37:34;96294.38;;;18.86;100.00
7662;BME280;30314;48.184;11.510;2022-07-05T08:40:06;96321.75;;;19.04;100.00
7662;BME280;30314;48.184;11.510;2022-07-05T08:42:35;96275.31;;;18.54;100.00
7662;BME280;30314;48.184;11.510;2022-07-05T08:45:11;96314.66;;;18.74;100.00
7662;BME280;30314;48.184;11.510;2022-07-05T08:47:40;96304.25;;;18.73;100.00
7662;BME280;30314;48.184;11.510;2022-07-05T08:50:08;96312.56;;;18.80;100.00
7662;BME280;30314;48.184;11.510;2022-07-05T08:52:41;96325.97;;;18.93;100.00
7662;BME280;30314;48.184;11.510;2022-07-05T08:55:10;96315.00;;;18.85;100.00
7662;BME280;30314;48.184;11.510;2022-07-05T08:57:39;96295.94;;;18.87;100.00
7662;BME280;30314;48.184;11.510;2022-07-05T09:00:08;96314.44;;;18.92;100.00
7662;BME280;30314;48.184;11.510;2022-07-05T09:02:36;96320.94;;;18.91;100.00
7662;BME280;30314;48.184;11.510;2022-07-05T09:05:04;96308.09;;;18.97;99.73
7662;BME280;30314;48.184;11.510;2022-07-05T09:07:34;96291.47;;;18.91;100.00
7662;BME280;30314;48.184;11.510;2022-07-05T09:10:05;96290.78;;;18.82;100.00
7662;BME280;30314;48.184;11.510;2022-07-05T09:12:34;96325.47;;;19.24;100.00
7662;BME280;30314;48.184;11.510;2022-07-05T09:15:06;96298.09;;;19.06;98.71
7662;BME280;30314;48.184;11.510;2022-07-05T09:17:42;96332.03;;;19.39;100.00
7662;BME280;30314;48.184;11.510;2022-07-05T09:20:11;96330.81;;;19.24;100.00
7662;BME280;30314;48.184;11.510;2022-07-05T09:22:48;96336.06;;;19.46;82.93
7662;BME280;30314;48.184;11.510;2022-07-05T09:25:20;96334.94;;;19.47;84.43
7662;BME280;30314;48.184;11.510;2022-07-05T09:27:52;96320.53;;;19.39;98.56
7662;BME280;30314;48.184;11.510;2022-07-05T09:30:39;96327.47;;;19.52;89.14
7662;BME280;30314;48.184;11.510;2022-07-05T09:33:09;96308.47;;;19.45;89.34
7662;BME280;30314;48.184;11.510;2022-07-05T09:35:38;96323.16;;;19.64;93.18
7662;BME280;30314;48.184;11.510;2022-07-05T09:38:17;96340.78;;;19.90;82.22
7662;BME280;30314;48.184;11.510;2022-07-05T09:40:46;96320.94;;;19.78;90.88
7662;BME280;30314;48.184;11.510;2022-07-05T09:43:16;96288.25;;;19.48;89.38
7662;BME280;30314;48.184;11.510;2022-07-05T09:46:12;96334.91;;;19.71;96.97
7662;BME280;30314;48.184;11.510;2022-07-05T09:48:51;96331.31;;;19.67;96.18
7662;BME280;30314;48.184;11.510;2022-07-05T09:51:19;96288.31;;;19.64;90.64
7662;BME280;30314;48.184;11.510;2022-07-05T09:54:07;96333.41;;;19.86;91.52
7662;BME280;30314;48.184;11.510;2022-07-05T09:56:44;96328.50;;;19.76;90.14
7662;BME280;30314;48.184;11.510;2022-07-05T09:59:14;96345.97;;;19.82;89.35
7662;BME280;30314;48.184;11.510;2022-07-05T10:01:44;96325.38;;;19.86;82.09
7662;BME280;30314;48.184;11.510;2022-07-05T10:04:12;96315.09;;;19.76;86.52
7662;BME280;30314;48.184;11.510;2022-07-05T10:06:40;96325.97;;;19.67;87.01
7662;BME280;30314;48.184;11.510;2022-07-05T10:09:10;96326.03;;;20.08;74.31
7662;BME280;30314;48.184;11.510;2022-07-05T10:11:40;96319.44;;;20.06;82.64
7662;BME280;30314;48.184;11.510;2022-07-05T10:14:11;96320.88;;;20.03;81.31
7662;BME280;30314;48.184;11.510;2022-07-05T10:16:47;96312.47;;;20.17;81.02
7662;BME280;30314;48.184;11.510;2022-07-05T10:19:19;96312.59;;;20.37;79.19
7662;BME280;30314;48.184;11.510;2022-07-05T10:21:49;96304.63;;;20.24;84.21
7662;BME280;30314;48.184;11.510;2022-07-05T10:24:37;96284.78;;;20.29;84.53
7662;BME280;30314;48.184;11.510;2022-07-05T10:27:06;96323.66;;;20.64;69.78
7662;BME280;30314;48.184;11.510;2022-07-05T10:29:34;96327.13;;;20.64;81.09
7662;BME280;30314;48.184;11.510;2022-07-05T10:32:07;96329.09;;;20.51;77.42
7662;BME280;30314;48.184;11.510;2022-07-05T10:34:37;96333.84;;;20.42;84.92
7662;BME280;30314;48.184;11.510;2022-07-05T10:37:25;96317.41;;;20.60;72.07
7662;BME280;30314;48.184;11.510;2022-07-05T10:39:55;96285.88;;;20.73;74.84
7662;BME280;30314;48.184;11.510;2022-07-05T10:42:25;96328.63;;;21.26;77.91
7662;BME280;30314;48.184;11.510;2022-07-05T10:44:56;96329.16;;;21.48;78.52
7662;BME280;30314;48.184;11.510;2022-07-05T10:47:26;96316.72;;;21.59;68.50
7662;BME280;30314;48.184;11.510;2022-07-05T10:50:00;96334.25;;;21.89;72.37
7662;BME280;30314;48.184;11.510;2022-07-05T10:52:29;96307.41;;;21.73;68.43
7662;BME280;30314;48.184;11.510;2022-07-05T10:55:17;96321.97;;;22.07;73.87
7662;BME280;30314;48.184;11.510;2022-07-05T10:58:22;96305.81;;;22.07;58.04
7662;BME280;30314;48.184;11.510;2022-07-05T11:03:53;96316.63;;;22.31;65.77
7662;BME280;30314;48.184;11.510;2022-07-05T11:06:24;96322.22;;;22.42;60.11
7662;BME280;30314;48.184;11.510;2022-07-05T11:09:14;96323.72;;;22.59;57.23
7662;BME280;30314;48.184;11.510;2022-07-05T11:11:44;96315.22;;;22.80;63.34
7662;BME280;30314;48.184;11.510;2022-07-05T11:14:35;96316.09;;;22.84;63.27
7662;BME280;30314;48.184;11.510;2022-07-05T11:17:19;96300.19;;;22.79;59.26
7662;BME280;30314;48.184;11.510;2022-07-05T11:20:16;96314.81;;;22.78;65.71
7662;BME280;30314;48.184;11.510;2022-07-05T11:23:06;96321.25;;;22.50;60.48
7662;BME280;30314;48.184;11.510;2022-07-05T11:25:37;96310.91;;;22.13;62.22
7662;BME280;30314;48.184;11.510;2022-07-05T11:30:55;96299.50;;;22.00;66.52
7662;BME280;30314;48.184;11.510;2022-07-05T11:33:35;96290.13;;;22.33;62.15
7662;BME280;30314;48.184;11.510;2022-07-05T11:36:05;96308.88;;;22.69;62.68
7662;BME280;30314;48.184;11.510;2022-07-05T11:38:33;96301.56;;;22.92;62.23
7662;BME280;30314;48.184;11.510;2022-07-05T11:41:21;96309.41;;;23.25;54.51
7662;BME280;30314;48.184;11.510;2022-07-05T11:43:55;96314.25;;;23.39;56.88
7662;BME280;30314;48.184;11.510;2022-07-05T11:46:26;96280.19;;;23.27;58.22
7662;BME280;30314;48.184;11.510;2022-07-05T11:49:23;96273.66;;;23.28;54.62
7662;BME280;30314;48.184;11.510;2022-07-05T11:51:58;96298.50;;;23.71;51.73
7662;BME280;30314;48.184;11.510;2022-07-05T11:54:28;96312.81;;;23.72;52.13
7662;BME280;30314;48.184;11.510;2022-07-05T11:56:57;96299.72;;;23.74;58.34
7662;BME280;30314;48.184;11.510;2022-07-05T11:59:25;96296.81;;;23.59;56.89
7662;BME280;30314;48.184;11.510;2022-07-05T12:01:55;96297.38;;;23.45;54.12
7662;BME280;30314;48.184;11.510;2022-07-05T12:04:25;96302.69;;;23.38;56.61
7662;BME280;30314;48.184;11.510;2022-07-05T12:06:54;96302.88;;;23.26;60.32
7662;BME280;30314;48.184;11.510;2022-07-05T12:09:24;96299.59;;;23.36;50.70
7662;BME280;30314;48.184;11.510;2022-07-05T12:11:53;96295.44;;;23.19;56.56
7662;BME280;30314;48.184;11.510;2022-07-05T12:14:47;96268.88;;;22.94;55.31
7662;BME280;30314;48.184;11.510;2022-07-05T12:17:17;96296.81;;;23.09;54.35
7662;BME280;30314;48.184;11.510;2022-07-05T12:19:52;96286.31;;;22.77;56.21
7662;BME280;30314;48.184;11.510;2022-07-05T12:22:33;96298.97;;;22.53;50.65
7662;BME280;30314;48.184;11.510;2022-07-05T12:25:03;96300.31;;;22.43;54.52
7662;BME280;30314;48.184;11.510;2022-07-05T12:27:34;96244.38;;;22.13;54.66
7662;BME280;30314;48.184;11.510;2022-07-05T12:30:03;96287.03;;;22.50;59.49
7662;BME280;30314;48.184;11.510;2022-07-05T12:32:32;96272.75;;;22.50;57.72
7662;BME280;30314;48.184;11.510;2022-07-05T12:35:03;96241.88;;;22.24;53.79
7662;BME280;30314;48.184;11.510;2022-07-05T12:37:35;96270.50;;;22.52;57.69
7662;BME280;30314;48.184;11.510;2022-07-05T12:40:09;96283.22;;;22.55;58.45
7662;BME280;30314;48.184;11.510;2022-07-05T12:42:38;96215.34;;;22.03;56.45
7662;BME280;30314;48.184;11.510;2022-07-05T12:45:08;96280.25;;;22.41;62.20
7662;BME280;30314;48.184;11.510;2022-07-05T12:47:49;96286.31;;;22.53;56.87
7662;BME280;30314;48.184;11.510;2022-07-05T12:50:19;96263.25;;;22.36;59.19
7662;BME280;30314;48.184;11.510;2022-07-05T12:53:01;96274.88;;;22.41;56.07
7662;BME280;30314;48.184;11.510;2022-07-05T12:55:49;96272.03;;;22.53;52.56
7662;BME280;30314;48.184;11.510;2022-07-05T12:58:45;96273.13;;;22.48;53.88
7662;BME280;30314;48.184;11.510;2022-07-05T13:01:24;96274.50;;;22.62;47.60
7662;BME280;30314;48.184;11.510;2022-07-05T13:04:02;96280.75;;;22.66;48.36
7662;BME280;30314;48.184;11.510;2022-07-05T13:06:49;96288.84;;;22.66;51.29
7662;BME280;30314;48.184;11.510;2022-07-05T13:09:32;96282.78;;;22.73;49.99
7662;BME280;30314;48.184;11.510;2022-07-05T13:12:09;96281.66;;;22.74;52.56
7662;BME280;30314;48.184;11.510;2022-07-05T13:14:39;96259.00;;;22.55;48.49
7662;BME280;30314;48.184;11.510;2022-07-05T13:17:08;96276.44;;;22.61;47.43
7662;BME280;30314;48.184;11.510;2022-07-05T13:19:39;96264.28;;;22.48;52.73
7662;BME280;30314;48.184;11.510;2022-07-05T13:22:07;96265.81;;;22.49;50.88
7662;BME280;30314;48.184;11.510;2022-07-05T13:24:35;96269.38;;;22.76;48.50
7662;BME280;30314;48.184;11.510;2022-07-05T13:27:04;96263.91;;;22.73;48.73
7662;BME280;30314;48.184;11.510;2022-07-05T13:29:32;96266.72;;;22.80;53.10
7662;BME280;30314;48.184;11.510;2022-07-05T13:32:00;96270.94;;;22.77;51.48
7662;BME280;30314;48.184;11.510;2022-07-05T13:34:28;96277.09;;;22.78;55.92
7662;BME280;30314;48.184;11.510;2022-07-05T13:36:57;96266.44;;;22.85;52.50
7662;BME280;30314;48.184;11.510;2022-07-05T13:39:27;96257.22;;;22.86;51.08
7662;BME280;30314;48.184;11.510;2022-07-05T13:41:57;96259.53;;;22.88;52.15
7662;BME280;30314;48.184;11.510;2022-07-05T13:44:25;96261.31;;;22.80;49.05
7662;BME280;30314;48.184;11.510;2022-07-05T13:46:53;96250.38;;;22.69;49.96
7662;BME280;30314;48.184;11.510;2022-07-05T13:49:20;96253.97;;;22.77;50.33
7662;BME280;30314;48.184;11.510;2022-07-05T13:51:51;96258.03;;;22.90;48.47
7662;BME280;30314;48.184;11.510;2022-07-05T13:54:20;96264.91;;;22.88;48.17
7662;BME280;30314;48.184;11.510;2022-07-05T13:56:48;96253.38;;;22.87;47.90
7662;BME280;30314;48.184;11.510;2022-07-05T13:59:18;96239.88;;;22.87;47.76
7662;BME280;30314;48.184;11.510;2022-07-05T14:01:46;96255.25;;;23.10;45.27
7662;BME280;30314;48.184;11.510;2022-07-05T14:04:14;96218.94;;;23.04;46.51
7662;BME280;30314;48.184;11.510;2022-07-05T14:06:42;96199.06;;;22.85;43.97
7662;BME280;30314;48.184;11.510;2022-07-05T14:09:11;96254.63;;;23.20;48.97
7662;BME280;30314;48.184;11.510;2022-07-05T14:11:40;96262.50;;;23.06;48.71
7662;BME280;30314;48.184;11.510;2022-07-05T14:14:07;96229.66;;;22.97;46.93
7662;BME280;30314;48.184;11.510;2022-07-05T14:16:36;96256.81;;;23.11;46.87
7662;BME280;30314;48.184;11.510;2022-07-05T14:19:04;96256.97;;;23.22;47.92
7662;BME280;30314;48.184;11.510;2022-07-05T14:21:33;96238.22;;;23.06;47.14
7662;BME280;30314;48.184;11.510;2022-07-05T14:24:04;96242.06;;;23.05;46.79
7662;BME280;30314;48.184;11.510;2022-07-05T14:26:32;96254.03;;;23.31;48.51
7662;BME280;30314;48.184;11.510;2022-07-05T14:29:02;96236.41;;;23.37;47.10
7662;BME280;30314;48.184;11.510;2022-07-05T14:31:30;96220.16;;;23.33;45.09
7662;BME280;30314;48.184;11.510;2022-07-05T14:33:59;96244.72;;;23.55;45.74
7662;BME280;30314;48.184;11.510;2022-07-05T14:36:26;96243.53;;;23.53;45.35
7662;BME280;30314;48.184;11.510;2022-07-05T14:38:54;96235.66;;;23.40;44.20
7662;BME280;30314;48.184;11.510;2022-07-05T14:41:22;96226.88;;;23.20;43.35
7662;BME280;30314;48.184;11.510;2022-07-05T14:43:50;96237.69;;;23.20;46.42
7662;BME280;30314;48.184;11.510;2022-07-05T14:46:19;96215.16;;;23.08;46.32
7662;BME280;30314;48.184;11.510;2022-07-05T14:48:47;96210.09;;;23.03;45.68
7662;BME280;30314;48.184;11.510;2022-07-05T14:51:15;96236.59;;;23.25;46.52
7662;BME280;30314;48.184;11.510;2022-07-05T14:53:43;96224.19;;;23.20;48.62
7662;BME280;30314;48.184;11.510;2022-07-05T14:56:13;96237.00;;;23.54;49.70
7662;BME280;30314;48.184;11.510;2022-07-05T14:58:41;96230.53;;;23.62;46.96
7662;BME280;30314;48.184;11.510;2022-07-05T15:01:09;96233.66;;;23.64;47.90
7662;BME280;30314;48.184;11.510;2022-07-05T15:03:38;96223.63;;;23.64;48.57
7662;BME280;30314;48.184;11.510;2022-07-05T15:06:06;96218.13;;;23.54;48.28
7662;BME280;30314;48.184;11.510;2022-07-05T15:08:35;96231.38;;;23.66;45.22
7662;BME280;30314;48.184;11.510;2022-07-05T15:11:03;96232.53;;;23.65;47.24
7662;BME280;30314;48.184;11.510;2022-07-05T15:13:31;96222.03;;;23.60;46.02
7662;BME280;30314;48.184;11.510;2022-07-05T15:16:01;96234.13;;;23.70;44.99
7662;BME280;30314;48.184;11.510;2022-07-05T15:18:30;96214.84;;;23.71;45.96
7662;BME280;30314;48.184;11.510;2022-07-05T15:20:59;96207.50;;;23.68;47.17
7662;BME280;30314;48.184;11.510;2022-07-05T15:23:30;96184.25;;;23.60;46.46
7662;BME280;30314;48.184;11.510;2022-07-05T15:25:58;96207.59;;;23.79;45.67
7662;BME280;30314;48.184;11.510;2022-07-05T15:28:26;96214.94;;;23.78;46.15
7662;BME280;30314;48.184;11.510;2022-07-05T15:30:54;96218.34;;;23.75;47.81
7662;BME280;30314;48.184;11.510;2022-07-05T15:33:22;96219.19;;;23.79;45.47
7662;BME280;30314;48.184;11.510;2022-07-05T15:35:55;96219.94;;;23.76;45.93
7662;BME280;30314;48.184;11.510;2022-07-05T15:38:26;96222.69;;;23.84;49.26
7662;BME280;30314;48.184;11.510;2022-07-05T15:40:54;96217.66;;;23.82;46.64
7662;BME280;30314;48.184;11.510;2022-07-05T15:43:23;96187.75;;;23.60;47.57
7662;BME280;30314;48.184;11.510;2022-07-05T15:45:55;96217.63;;;23.78;48.07
7662;BME280;30314;48.184;11.510;2022-07-05T15:48:23;96194.81;;;23.72;46.33
7662;BME280;30314;48.184;11.510;2022-07-05T15:50:51;96215.84;;;23.90;48.00
7662;BME280;30314;48.184;11.510;2022-07-05T15:53:27;96204.59;;;23.84;44.91
7662;BME280;30314;48.184;11.510;2022-07-05T15:55:56;96175.50;;;23.70;44.67
7662;BME280;30314;48.184;11.510;2022-07-05T15:58:27;96210.97;;;24.03;43.95
7662;BME280;30314;48.184;11.510;2022-07-05T16:00:55;96204.66;;;23.91;47.03
7662;BME280;30314;48.184;11.510;2022-07-05T16:03:23;96143.25;;;23.47;46.46
7662;BME280;30314;48.184;11.510;2022-07-05T16:05:51;96194.91;;;23.79;45.86
7662;BME280;30314;48.184;11.510;2022-07-05T16:08:21;96205.44;;;23.92;45.20
7662;BME280;30314;48.184;11.510;2022-07-05T16:10:51;96168.31;;;23.82;42.91
7662;BME280;30314;48.184;11.510;2022-07-05T16:13:18;96150.41;;;23.66;44.22
7662;BME280;30314;48.184;11.510;2022-07-05T16:15:47;96195.00;;;23.90;43.37
7662;BME280;30314;48.184;11.510;2022-07-05T16:18:33;96191.06;;;23.81;46.37
7662;BME280;30314;48.184;11.510;2022-07-05T16:21:02;96190.25;;;23.76;47.90
7662;BME280;30314;48.184;11.510;2022-07-05T16:23:37;96179.31;;;23.65;44.82
7662;BME280;30314;48.184;11.510;2022-07-05T16:26:08;96206.09;;;23.82;44.94
7662;BME280;30314;48.184;11.510;2022-07-05T16:28:37;96160.38;;;23.62;44.33
7662;BME280;30314;48.184;11.510;2022-07-05T16:31:06;96186.63;;;23.65;44.97
7662;BME280;30314;48.184;11.510;2022-07-05T16:33:37;96203.25;;;23.67;45.98
7662;BME280;30314;48.184;11.510;2022-07-05T16:36:07;96192.00;;;23.61;45.69
7662;BME280;30314;48.184;11.510;2022-07-05T16:38:35;96182.06;;;23.39;45.62
7662;BME280;30314;48.184;11.510;2022-07-05T16:41:05;96200.31;;;23.49;46.39
7662;BME280;30314;48.184;11.510;2022-07-05T16:43:34;96200.69;;;23.47;48.45
7662;BME280;30314;48.184;11.510;2022-07-05T16:46:04;96178.88;;;23.29;47.43
7662;BME280;30314;48.184;11.510;2022-07-05T16:48:34;96194.69;;;23.31;47.41
7662;BME280;30314;48.184;11.510;2022-07-05T16:51:03;96187.59;;;23.19;46.38
7662;BME280;30314;48.184;11.510;2022-07-05T16:53:31;96188.88;;;23.29;45.71
7662;BME280;30314;48.184;11.510;2022-07-05T16:56:03;96158.22;;;23.14;47.71
7662;BME280;30314;48.184;11.510;2022-07-05T16:58:31;96152.63;;;22.99;47.19
7662;BME280;30314;48.184;11.510;2022-07-05T17:01:03;96197.78;;;23.33;48.36
7662;BME280;30314;48.184;11.510;2022-07-05T17:03:31;96187.16;;;23.17;48.66
7662;BME280;30314;48.184;11.510;2022-07-05T17:05:59;96185.28;;;23.21;47.21
7662;BME280;30314;48.184;11.510;2022-07-05T17:08:27;96136.31;;;22.88;45.95
7662;BME280;30314;48.184;11.510;2022-07-05T17:10:58;96198.13;;;23.28;48.34
7662;BME280;30314;48.184;11.510;2022-07-05T17:13:32;96197.97;;;23.20;47.82
7662;BME280;30314;48.184;11.510;2022-07-05T17:16:06;96180.59;;;23.14;48.61
7662;BME280;30314;48.184;11.510;2022-07-05T17:18:34;96191.38;;;23.14;48.33
7662;BME280;30314;48.184;11.510;2022-07-05T17:24:13;96185.84;;;23.03;49.73
7662;BME280;30314;48.184;11.510;2022-07-05T17:26:56;96189.22;;;22.97;48.36
7662;BME280;30314;48.184;11.510;2022-07-05T17:29:24;96174.00;;;22.85;46.62
7662;BME280;30314;48.184;11.510;2022-07-05T17:31:53;96179.44;;;22.88;49.15
7662;BME280;30314;48.184;11.510;2022-07-05T17:34:21;96165.56;;;22.59;49.59
7662;BME280;30314;48.184;11.510;2022-07-05T17:36:49;96202.03;;;22.80;50.25
7662;BME280;30314;48.184;11.510;2022-07-05T17:39:19;96153.25;;;22.38;50.37
7662;BME280;30314;48.184;11.510;2022-07-05T17:41:47;96193.91;;;22.53;51.30
7662;BME280;30314;48.184;11.510;2022-07-05T17:44:14;96181.09;;;22.46;51.91
7662;BME280;30314;48.184;11.510;2022-07-05T17:46:42;96191.94;;;22.27;52.50
7662;BME280;30314;48.184;11.510;2022-07-05T17:49:41;96212.09;;;22.36;51.37
7662;BME280;30314;48.184;11.510;2022-07-05T17:52:10;96210.84;;;22.30;51.30
7662;BME280;30314;48.184;11.510;2022-07-05T17:54:38;96213.88;;;22.29;53.10
7662;BME280;30314;48.184;11.510;2022-07-05T17:57:06;96162.88;;;21.93;51.80
7662;BME280;30314;48.184;11.510;2022-07-05T17:59:34;96188.91;;;22.08;51.98
7662;BME280;30314;48.184;11.510;2022-07-05T18:02:02;96208.09;;;22.07;52.84
7662;BME280;30314;48.184;11.510;2022-07-05T18:04:30;96167.69;;;21.83;53.67
7662;BME280;30314;48.184;11.510;2022-07-05T18:06:59;96209.06;;;21.95;54.00